Time;durP1;ratioP1;P1;durP2;ratioP2;P2;SDS_P1;SDS_P2;PMS_P1;PMS_P2;Temp;Humidity;BMP_temperature;BMP_pressure;BME280_temperature;BME280_humidity;BME280_pressure;Samples;Min_cycle;Max_cycle;Signal;HPM_P1;HPM_P2
2022/08/02 00:00:09;;;;;;;;;;;18.50;99.90;;;;;;4594530;19;19982;-32
2022/08/02 00:02:03;;;;;;;;;;;18.50;99.90;;;;;;4593553;19;19982;-32
2022/08/02 00:03:34;;;;;;;;;;;18.60;99.90;;;;;;4593844;19;19915;-32
2022/08/02 00:05:05;;;;;;;;;;;18.50;99.90;;;;;;4594628;19;19921;-33
2022/08/02 00:06:36;;;;;;;;;;;18.60;99.90;;;;;;4594586;19;19915;-32
2022/08/02 00:08:07;;;;;;;;;;;18.60;99.90;;;;;;4594364;19;19925;-32
2022/08/02 00:09:38;;;;;;;;;;;18.60;99.90;;;;;;4594040;19;19994;-32
2022/08/02 00:11:09;;;;;;;;;;;18.60;99.90;;;;;;4593211;19;19919;-33
2022/08/02 00:12:40;;;;;;;;;;;18.60;99.90;;;;;;4594647;19;19919;-33
2022/08/02 00:14:11;;;;;;;;;;;18.70;99.90;;;;;;4594688;19;19923;-32
2022/08/02 00:15:42;;;;;;;;;;;18.70;99.90;;;;;;4593934;19;19943;-33
2022/08/02 00:17:13;;;;;;;;;;;18.70;99.90;;;;;;4594159;19;19989;-33
2022/08/02 00:18:44;;;;;;;;;;;18.70;99.90;;;;;;4592487;19;19923;-32
2022/08/02 00:20:15;;;;;;;;;;;18.70;99.90;;;;;;4592034;19;20278;-33
2022/08/02 00:21:45;;;;;;;;;;;18.70;99.90;;;;;;4593111;19;20305;-32
2022/08/02 00:23:16;;;;;;;;;;;18.70;99.90;;;;;;4593820;19;19940;-32
2022/08/02 00:24:47;;;;;;;;;;;18.70;99.90;;;;;;4592564;19;19919;-32
2022/08/02 00:26:18;;;;;;;;;;;18.70;99.90;;;;;;4594378;19;19922;-32
2022/08/02 00:27:49;;;;;;;;;;;18.70;99.90;;;;;;4594268;19;19923;-33
2022/08/02 00:29:20;;;;;;;;;;;18.70;99.90;;;;;;4594490;19;19992;-32
2022/08/02 00:30:51;;;;;;;;;;;18.70;99.90;;;;;;4594303;19;20271;-32
2022/08/02 00:32:22;;;;;;;;;;;18.70;99.90;;;;;;4593572;19;19926;-32
2022/08/02 00:33:53;;;;;;;;;;;18.70;99.90;;;;;;4594187;19;19919;-32
2022/08/02 00:35:24;;;;;;;;;;;18.70;99.90;;;;;;4594365;19;19990;-32
2022/08/02 00:36:55;;;;;;;;;;;18.70;99.90;;;;;;4593287;19;19925;-32
2022/08/02 00:38:26;;;;;;;;;;;18.70;99.90;;;;;;4593527;19;19911;-32
2022/08/02 00:39:57;;;;;;;;;;;18.70;99.90;;;;;;4593889;19;19919;-32
2022/08/02 00:41:28;;;;;;;;;;;18.70;99.90;;;;;;4594045;19;19915;-32
2022/08/02 00:43:03;;;;;;;;;;;18.70;99.90;;;;;;4593875;19;19929;-32
2022/08/02 00:44:34;;;;;;;;;;;18.70;99.90;;;;;;4594007;19;19921;-32
2022/08/02 00:46:06;;;;;;;;;;;18.70;99.90;;;;;;4592929;19;20289;-32
2022/08/02 00:47:36;;;;;;;;;;;18.70;99.90;;;;;;4593603;19;19926;-32
2022/08/02 00:49:08;;;;;;;;;;;18.70;99.90;;;;;;4593573;19;19921;-32
2022/08/02 00:50:39;;;;;;;;;;;18.70;99.90;;;;;;4591120;19;20241;-32
2022/08/02 00:52:10;;;;;;;;;;;18.70;99.90;;;;;;4594071;19;19911;-32
2022/08/02 00:53:41;;;;;;;;;;;18.70;99.90;;;;;;4594362;19;20341;-33
2022/08/02 00:55:12;;;;;;;;;;;18.70;99.90;;;;;;4592674;19;19925;-32
2022/08/02 00:56:43;;;;;;;;;;;18.70;99.90;;;;;;4593453;19;20242;-32
2022/08/02 00:58:14;;;;;;;;;;;18.70;99.90;;;;;;4594243;19;19925;-32
2022/08/02 00:59:45;;;;;;;;;;;18.70;99.90;;;;;;4594393;19;19919;-32
2022/08/02 01:01:16;;;;;;;;;;;18.70;99.90;;;;;;4593702;19;19918;-32
2022/08/02 01:02:47;;;;;;;;;;;18.60;99.90;;;;;;4593744;19;19915;-33
2022/08/02 01:04:18;;;;;;;;;;;18.70;99.90;;;;;;4594655;19;19915;-32
2022/08/02 01:05:49;;;;;;;;;;;18.60;99.90;;;;;;4593280;19;19915;-32
2022/08/02 01:07:20;;;;;;;;;;;18.60;99.90;;;;;;4593589;19;19982;-32
2022/08/02 01:08:51;;;;;;;;;;;18.70;99.90;;;;;;4594089;19;19919;-32
2022/08/02 01:10:22;;;;;;;;;;;18.70;99.90;;;;;;4591968;19;19939;-32
2022/08/02 01:11:53;;;;;;;;;;;18.70;99.90;;;;;;4593374;19;20325;-32
2022/08/02 01:13:25;;;;;;;;;;;18.70;99.90;;;;;;4593419;19;19919;-32
2022/08/02 01:14:56;;;;;;;;;;;18.60;99.90;;;;;;4593644;19;19925;-32
2022/08/02 01:16:27;;;;;;;;;;;18.60;99.90;;;;;;4592624;19;20313;-32
2022/08/02 01:18:02;;;;;;;;;;;18.60;99.90;;;;;;4593001;19;19986;-33
2022/08/02 01:19:36;;;;;;;;;;;18.70;99.90;;;;;;4593419;19;19922;-32
2022/08/02 01:21:26;;;;;;;;;;;18.60;99.90;;;;;;4591925;19;19922;-32
2022/08/02 01:23:15;;;;;;;;;;;18.60;99.90;;;;;;4593546;19;19907;-32
2022/08/02 01:24:47;;;;;;;;;;;18.60;99.90;;;;;;4594130;19;19921;-32
2022/08/02 01:26:20;;;;;;;;;;;18.60;99.90;;;;;;4593229;19;19931;-32
2022/08/02 01:28:06;;;;;;;;;;;18.60;99.90;;;;;;4593484;19;19925;-32
2022/08/02 01:29:38;;;;;;;;;;;18.60;99.90;;;;;;4593146;19;19925;-32
2022/08/02 01:31:26;;;;;;;;;;;18.60;99.90;;;;;;4592967;19;19951;-32
2022/08/02 01:32:57;;;;;;;;;;;18.60;99.90;;;;;;4593192;19;19915;-32
2022/08/02 01:34:28;;;;;;;;;;;18.60;99.90;;;;;;4591713;19;19922;-32
2022/08/02 01:35:59;;;;;;;;;;;18.60;99.90;;;;;;4592889;19;19926;-32
2022/08/02 01:37:39;;;;;;;;;;;18.60;99.90;;;;;;4592350;19;19936;-32
2022/08/02 01:39:13;;;;;;;;;;;18.60;99.90;;;;;;4592655;19;19915;-32
2022/08/02 01:40:44;;;;;;;;;;;18.60;99.90;;;;;;4592758;19;19925;-32
2022/08/02 01:42:15;;;;;;;;;;;18.60;99.90;;;;;;4592195;19;20325;-32
2022/08/02 01:43:46;;;;;;;;;;;18.60;99.90;;;;;;4592209;19;19918;-32
2022/08/02 01:45:17;;;;;;;;;;;18.60;99.90;;;;;;4592282;19;19922;-33
2022/08/02 01:46:48;;;;;;;;;;;18.60;99.90;;;;;;4592750;19;19970;-32
2022/08/02 01:48:19;;;;;;;;;;;18.60;99.90;;;;;;4593428;19;19926;-32
2022/08/02 01:49:51;;;;;;;;;;;18.60;99.90;;;;;;4591257;19;19978;-32
2022/08/02 01:53:12;;;;;;;;;;;18.60;99.90;;;;;;4592349;19;19911;-32
2022/08/02 01:54:43;;;;;;;;;;;18.60;99.90;;;;;;4592495;19;19915;-32
2022/08/02 01:56:14;;;;;;;;;;;18.50;99.90;;;;;;4592321;19;20267;-32
2022/08/02 01:57:48;;;;;;;;;;;18.50;99.90;;;;;;4591192;19;19915;-32
2022/08/02 01:59:20;;;;;;;;;;;18.60;99.90;;;;;;4591497;19;19918;-32
2022/08/02 02:00:51;;;;;;;;;;;18.60;99.90;;;;;;4589979;19;19918;-32
2022/08/02 02:02:22;;;;;;;;;;;18.50;99.90;;;;;;4589943;19;19933;-32
2022/08/02 02:03:53;;;;;;;;;;;18.60;99.90;;;;;;4590300;19;20304;-32
2022/08/02 02:05:25;;;;;;;;;;;18.50;99.90;;;;;;4591230;19;19982;-33
2022/08/02 02:06:56;;;;;;;;;;;18.60;99.90;;;;;;4592265;19;19932;-32
2022/08/02 02:08:33;;;;;;;;;;;18.50;99.90;;;;;;4588433;19;19923;-32
2022/08/02 02:10:04;;;;;;;;;;;18.60;99.90;;;;;;4589997;19;20344;-32
2022/08/02 02:11:35;;;;;;;;;;;18.60;99.90;;;;;;4589374;19;19919;-32
2022/08/02 02:13:11;;;;;;;;;;;18.60;99.90;;;;;;4591527;19;19922;-32
2022/08/02 02:14:42;;;;;;;;;;;18.60;99.90;;;;;;4592042;19;19918;-33
2022/08/02 02:16:14;;;;;;;;;;;18.60;99.90;;;;;;4590293;19;19932;-32
2022/08/02 02:17:45;;;;;;;;;;;18.50;99.90;;;;;;4592043;19;19926;-32
2022/08/02 02:19:17;;;;;;;;;;;18.50;99.90;;;;;;4590990;19;20349;-32
2022/08/02 02:20:48;;;;;;;;;;;18.50;99.90;;;;;;4589505;19;19925;-32
2022/08/02 02:22:19;;;;;;;;;;;18.50;99.90;;;;;;4591757;19;20356;-32
2022/08/02 02:23:50;;;;;;;;;;;18.50;99.90;;;;;;4590842;19;19974;-32
2022/08/02 02:25:21;;;;;;;;;;;18.60;99.90;;;;;;4591598;19;19918;-32
2022/08/02 02:26:52;;;;;;;;;;;18.50;99.90;;;;;;4590678;19;19947;-32
2022/08/02 02:28:29;;;;;;;;;;;18.50;99.90;;;;;;4591408;19;19919;-32
2022/08/02 02:29:59;;;;;;;;;;;18.50;99.90;;;;;;4591712;19;19915;-32
2022/08/02 02:31:37;;;;;;;;;;;18.50;99.90;;;;;;4592540;19;19935;-32
2022/08/02 02:33:09;;;;;;;;;;;18.50;99.90;;;;;;4590621;19;19936;-32
2022/08/02 02:34:41;;;;;;;;;;;18.50;99.90;;;;;;4590777;19;19919;-32
2022/08/02 02:36:12;;;;;;;;;;;18.50;99.90;;;;;;4591595;19;20008;-32
2022/08/02 02:37:43;;;;;;;;;;;18.50;99.90;;;;;;4590973;19;19942;-32
2022/08/02 02:39:14;;;;;;;;;;;18.50;99.90;;;;;;4591331;19;19919;-32
2022/08/02 02:40:46;;;;;;;;;;;18.50;99.90;;;;;;4590900;19;19917;-32
2022/08/02 02:42:17;;;;;;;;;;;18.50;99.90;;;;;;4591245;19;19911;-32
2022/08/02 02:43:48;;;;;;;;;;;18.50;99.90;;;;;;4590648;19;19963;-32
2022/08/02 02:45:20;;;;;;;;;;;18.50;99.90;;;;;;4590553;19;19938;-32
2022/08/02 02:46:52;;;;;;;;;;;18.50;99.90;;;;;;4591139;19;20292;-32
2022/08/02 02:48:23;;;;;;;;;;;18.50;99.90;;;;;;4590568;19;19977;-32
2022/08/02 02:49:54;;;;;;;;;;;18.50;99.90;;;;;;4590320;19;19915;-32
2022/08/02 02:51:25;;;;;;;;;;;18.50;99.90;;;;;;4590810;19;19915;-32
2022/08/02 02:52:56;;;;;;;;;;;18.50;99.90;;;;;;4590891;19;19922;-32
2022/08/02 02:54:27;;;;;;;;;;;18.50;99.90;;;;;;4590429;19;20259;-32
2022/08/02 02:55:58;;;;;;;;;;;18.40;99.90;;;;;;4591031;19;19922;-32
2022/08/02 02:57:30;;;;;;;;;;;18.50;99.90;;;;;;4590266;19;20012;-33
2022/08/02 02:59:01;;;;;;;;;;;18.50;99.90;;;;;;4591412;19;20014;-32
2022/08/02 03:02:21;;;;;;;;;;;18.50;99.90;;;;;;4589968;19;19947;-32
2022/08/02 03:03:53;;;;;;;;;;;18.40;99.90;;;;;;4589989;19;20322;-33
2022/08/02 03:05:24;;;;;;;;;;;18.40;99.90;;;;;;4590789;19;19922;-32
2022/08/02 03:06:55;;;;;;;;;;;18.40;99.90;;;;;;4591905;19;20313;-33
2022/08/02 03:08:26;;;;;;;;;;;18.40;99.90;;;;;;4589936;19;19915;-33
2022/08/02 03:09:57;;;;;;;;;;;18.40;99.90;;;;;;4589678;19;19974;-33
2022/08/02 03:11:28;;;;;;;;;;;18.40;99.90;;;;;;4589877;19;19978;-33
2022/08/02 03:12:59;;;;;;;;;;;18.40;99.90;;;;;;4589930;19;20298;-33
2022/08/02 03:14:30;;;;;;;;;;;18.40;99.90;;;;;;4590056;19;19919;-33
2022/08/02 03:16:02;;;;;;;;;;;18.40;99.90;;;;;;4590185;19;19962;-33
2022/08/02 03:17:37;;;;;;;;;;;18.40;99.90;;;;;;4591393;19;19915;-32
2022/08/02 03:19:08;;;;;;;;;;;18.40;99.90;;;;;;4589851;19;20329;-33
2022/08/02 03:20:39;;;;;;;;;;;18.40;99.90;;;;;;4590411;19;19930;-33
2022/08/02 03:22:11;;;;;;;;;;;18.30;99.90;;;;;;4590929;19;19982;-32
2022/08/02 03:23:42;;;;;;;;;;;18.30;99.90;;;;;;4591210;19;20325;-33
2022/08/02 03:25:13;;;;;;;;;;;18.40;99.90;;;;;;4590782;19;19925;-33
2022/08/02 03:26:44;;;;;;;;;;;18.40;99.90;;;;;;4591125;19;19975;-33
2022/08/02 03:28:15;;;;;;;;;;;18.40;99.90;;;;;;4591436;19;19974;-33
2022/08/02 03:29:46;;;;;;;;;;;18.40;99.90;;;;;;4590976;19;19950;-33
2022/08/02 03:31:17;;;;;;;;;;;18.40;99.90;;;;;;4590664;19;19925;-33
2022/08/02 03:32:48;;;;;;;;;;;18.40;99.90;;;;;;4588763;19;19918;-33
2022/08/02 03:34:19;;;;;;;;;;;18.40;99.90;;;;;;4588533;19;19982;-32
2022/08/02 03:35:51;;;;;;;;;;;18.30;99.90;;;;;;4590030;19;19919;-33
2022/08/02 03:37:22;;;;;;;;;;;18.30;99.90;;;;;;4590323;19;19911;-33
2022/08/02 03:38:53;;;;;;;;;;;18.40;99.90;;;;;;4589582;19;19918;-32
2022/08/02 03:40:24;;;;;;;;;;;18.40;99.90;;;;;;4590141;19;19987;-32
2022/08/02 03:41:55;;;;;;;;;;;18.30;99.90;;;;;;4589959;19;19923;-33
2022/08/02 03:43:26;;;;;;;;;;;18.30;99.90;;;;;;4590582;19;19915;-33
2022/08/02 03:44:57;;;;;;;;;;;18.30;99.90;;;;;;4589602;19;19915;-32
2022/08/02 03:46:28;;;;;;;;;;;18.40;99.90;;;;;;4588949;19;19922;-32
2022/08/02 03:47:59;;;;;;;;;;;18.40;99.90;;;;;;4589700;19;20274;-33
2022/08/02 03:49:30;;;;;;;;;;;18.30;99.90;;;;;;4587715;19;19938;-32
2022/08/02 03:51:05;;;;;;;;;;;18.30;99.90;;;;;;4586325;19;20280;-32
2022/08/02 03:52:36;;;;;;;;;;;18.40;99.90;;;;;;4590562;19;19911;-33
2022/08/02 03:54:07;;;;;;;;;;;18.40;99.90;;;;;;4589139;19;20321;-32
2022/08/02 03:55:38;;;;;;;;;;;18.40;99.90;;;;;;4587408;19;19919;-33
2022/08/02 03:57:09;;;;;;;;;;;18.40;99.90;;;;;;4588713;19;19915;-33
2022/08/02 03:58:41;;;;;;;;;;;18.40;99.90;;;;;;4589890;19;20008;-33
2022/08/02 04:00:13;;;;;;;;;;;18.40;99.90;;;;;;4589714;19;19950;-33
2022/08/02 04:01:45;;;;;;;;;;;18.40;99.90;;;;;;4589130;19;19922;-33
2022/08/02 04:03:16;;;;;;;;;;;18.30;99.90;;;;;;4590061;19;19953;-33
2022/08/02 04:04:47;;;;;;;;;;;18.40;99.90;;;;;;4588043;19;20355;-33
2022/08/02 04:06:18;;;;;;;;;;;18.40;99.90;;;;;;4590172;19;19974;-33
2022/08/02 04:07:49;;;;;;;;;;;18.40;99.90;;;;;;4590034;19;19923;-32
2022/08/02 04:09:20;;;;;;;;;;;18.40;99.90;;;;;;4590999;19;19919;-33
2022/08/02 04:12:41;;;;;;;;;;;18.40;99.90;;;;;;4590382;19;19918;-33
2022/08/02 04:14:12;;;;;;;;;;;18.30;99.90;;;;;;4590452;19;19935;-32
2022/08/02 04:15:43;;;;;;;;;;;18.40;99.90;;;;;;4589790;19;20245;-33
2022/08/02 04:17:14;;;;;;;;;;;18.30;99.90;;;;;;4588584;19;20301;-32
2022/08/02 04:18:49;;;;;;;;;;;18.30;99.90;;;;;;4589012;19;20317;-33
2022/08/02 04:20:21;;;;;;;;;;;18.40;99.90;;;;;;4588483;19;19926;-33
2022/08/02 04:21:52;;;;;;;;;;;18.40;99.90;;;;;;4589361;19;19934;-32
2022/08/02 04:23:24;;;;;;;;;;;18.40;99.90;;;;;;4588651;19;19929;-32
2022/08/02 04:24:56;;;;;;;;;;;18.40;99.90;;;;;;4589270;19;19974;-32
2022/08/02 04:26:27;;;;;;;;;;;18.40;99.90;;;;;;4591514;19;19918;-32
2022/08/02 04:27:58;;;;;;;;;;;18.30;99.90;;;;;;4593891;19;19919;-32
2022/08/02 04:29:29;;;;;;;;;;;18.40;99.90;;;;;;4594300;19;19927;-33
2022/08/02 04:31:00;;;;;;;;;;;18.40;99.90;;;;;;4594748;19;19915;-32
2022/08/02 04:32:31;;;;;;;;;;;18.30;99.90;;;;;;4594699;19;19922;-32
2022/08/02 04:34:02;;;;;;;;;;;18.40;99.90;;;;;;4592783;19;20380;-33
2022/08/02 04:35:33;;;;;;;;;;;18.40;99.90;;;;;;4592963;19;19990;-33
2022/08/02 04:37:04;;;;;;;;;;;18.40;99.90;;;;;;4593298;19;20244;-33
2022/08/02 04:38:35;;;;;;;;;;;18.40;99.90;;;;;;4594871;19;19950;-33
2022/08/02 04:40:09;;;;;;;;;;;18.40;99.90;;;;;;4592750;19;19915;-32
2022/08/02 04:41:41;;;;;;;;;;;18.40;99.90;;;;;;4593057;19;19915;-32
2022/08/02 04:43:12;;;;;;;;;;;18.40;99.90;;;;;;4594130;19;19947;-32
2022/08/02 04:44:43;;;;;;;;;;;18.40;99.90;;;;;;4594081;19;19923;-32
2022/08/02 04:46:14;;;;;;;;;;;18.40;99.90;;;;;;4594350;19;19923;-32
2022/08/02 04:47:45;;;;;;;;;;;18.40;99.90;;;;;;4594658;19;19970;-32
2022/08/02 04:49:16;;;;;;;;;;;18.40;99.90;;;;;;4594957;19;19925;-32
2022/08/02 04:50:47;;;;;;;;;;;18.40;99.90;;;;;;4591969;19;19925;-32
2022/08/02 04:52:18;;;;;;;;;;;18.40;99.90;;;;;;4593835;19;20344;-32
2022/08/02 04:53:49;;;;;;;;;;;18.40;99.90;;;;;;4594474;19;19915;-32
2022/08/02 04:55:20;;;;;;;;;;;18.50;99.90;;;;;;4593505;19;19926;-32
2022/08/02 04:56:51;;;;;;;;;;;18.50;99.90;;;;;;4592321;19;19919;-32
2022/08/02 04:58:22;;;;;;;;;;;18.40;99.90;;;;;;4593683;19;19911;-33
2022/08/02 04:59:53;;;;;;;;;;;18.50;99.90;;;;;;4593417;19;19922;-32
2022/08/02 05:01:24;;;;;;;;;;;18.50;99.90;;;;;;4592660;19;20322;-32
2022/08/02 05:02:55;;;;;;;;;;;18.50;99.90;;;;;;4593407;19;19935;-32
2022/08/02 05:04:26;;;;;;;;;;;18.50;99.90;;;;;;4593995;19;19921;-32
2022/08/02 05:05:59;;;;;;;;;;;18.50;99.90;;;;;;4593200;19;20358;-32
2022/08/02 05:07:30;;;;;;;;;;;18.50;99.90;;;;;;4593353;19;20268;-32
2022/08/02 05:09:01;;;;;;;;;;;18.50;99.90;;;;;;4591723;19;19923;-32
2022/08/02 05:10:32;;;;;;;;;;;18.50;99.90;;;;;;4591231;19;20272;-32
2022/08/02 05:12:03;;;;;;;;;;;18.50;99.90;;;;;;4593444;19;19915;-32
2022/08/02 05:13:34;;;;;;;;;;;18.60;99.90;;;;;;4592750;19;19918;-33
2022/08/02 05:15:05;;;;;;;;;;;18.50;99.90;;;;;;4593662;19;19938;-32
2022/08/02 05:16:36;;;;;;;;;;;18.50;99.90;;;;;;4593370;19;19922;-32
2022/08/02 05:18:07;;;;;;;;;;;18.60;99.90;;;;;;4593090;19;19978;-32
2022/08/02 05:19:38;;;;;;;;;;;18.60;99.90;;;;;;4592290;19;20264;-32
2022/08/02 05:21:09;;;;;;;;;;;18.60;99.90;;;;;;4593777;19;19941;-33
2022/08/02 05:22:40;;;;;;;;;;;18.60;99.90;;;;;;4594270;19;19911;-32
2022/08/02 05:24:11;;;;;;;;;;;18.60;99.90;;;;;;4592727;19;19929;-32
2022/08/02 05:25:42;;;;;;;;;;;18.60;99.90;;;;;;4593293;19;20236;-32
2022/08/02 05:27:12;;;;;;;;;;;18.70;99.90;;;;;;4594638;19;19915;-32
2022/08/02 05:28:43;;;;;;;;;;;18.70;99.90;;;;;;4595614;19;20358;-32
2022/08/02 05:30:14;;;;;;;;;;;18.70;99.90;;;;;;4594392;19;19910;-32
2022/08/02 05:31:45;;;;;;;;;;;18.70;99.90;;;;;;4593362;19;19919;-32
2022/08/02 05:33:16;;;;;;;;;;;18.70;99.90;;;;;;4592462;19;19935;-32
2022/08/02 05:34:47;;;;;;;;;;;18.70;99.90;;;;;;4593875;19;20253;-32
2022/08/02 05:36:18;;;;;;;;;;;18.80;99.90;;;;;;4593714;19;19922;-32
2022/08/02 05:37:49;;;;;;;;;;;18.80;99.90;;;;;;4592987;19;20377;-32
2022/08/02 05:39:20;;;;;;;;;;;18.80;99.90;;;;;;4593521;19;20325;-33
2022/08/02 05:40:51;;;;;;;;;;;18.80;99.90;;;;;;4592628;19;19952;-32
2022/08/02 05:42:22;;;;;;;;;;;18.80;99.90;;;;;;4592788;19;19984;-32
2022/08/02 05:43:53;;;;;;;;;;;18.80;99.90;;;;;;4592212;19;19934;-33
2022/08/02 05:45:24;;;;;;;;;;;18.90;99.90;;;;;;4593096;19;19922;-32
2022/08/02 05:46:55;;;;;;;;;;;18.90;99.90;;;;;;4591610;19;19918;-32
2022/08/02 05:48:26;;;;;;;;;;;18.90;99.90;;;;;;4592596;19;19918;-32
2022/08/02 05:49:57;;;;;;;;;;;18.90;99.90;;;;;;4591878;19;19922;-32
2022/08/02 05:51:30;;;;;;;;;;;18.90;99.90;;;;;;4591946;19;19930;-33
2022/08/02 05:53:18;;;;;;;;;;;18.90;99.90;;;;;;4589994;19;19918;-33
2022/08/02 05:54:59;;;;;;;;;;;18.90;99.90;;;;;;4590356;19;20300;-32
2022/08/02 05:56:34;;;;;;;;;;;18.90;99.90;;;;;;4592625;19;20364;-33
2022/08/02 05:58:10;;;;;;;;;;;18.90;99.90;;;;;;4592682;19;19918;-31
2022/08/02 05:59:43;;;;;;;;;;;18.90;99.90;;;;;;4592690;19;20013;-32
2022/08/02 06:01:16;;;;;;;;;;;19.00;99.90;;;;;;4591508;19;19929;-33
2022/08/02 06:03:06;;;;;;;;;;;18.90;99.90;;;;;;4592526;19;19922;-33
2022/08/02 06:04:43;;;;;;;;;;;19.00;99.90;;;;;;4592025;19;19922;-33
2022/08/02 06:06:15;;;;;;;;;;;19.00;99.90;;;;;;4590909;19;19915;-32
2022/08/02 06:07:46;;;;;;;;;;;19.00;99.90;;;;;;4591804;19;19919;-33
2022/08/02 06:09:17;;;;;;;;;;;19.00;99.90;;;;;;4590869;19;19923;-33
2022/08/02 06:10:49;;;;;;;;;;;19.00;99.90;;;;;;4590072;19;19922;-34
2022/08/02 06:12:20;;;;;;;;;;;19.00;99.90;;;;;;4591817;19;19927;-34
2022/08/02 06:13:53;;;;;;;;;;;19.00;99.90;;;;;;4587889;19;19929;-34
2022/08/02 06:15:23;;;;;;;;;;;19.00;99.90;;;;;;4589553;19;19929;-34
2022/08/02 06:16:54;;;;;;;;;;;19.00;99.90;;;;;;4591315;19;19922;-32
2022/08/02 06:18:26;;;;;;;;;;;19.00;99.90;;;;;;4591513;19;20314;-32
2022/08/02 06:19:58;;;;;;;;;;;19.00;99.90;;;;;;4589405;19;19919;-33
2022/08/02 06:21:29;;;;;;;;;;;19.00;99.90;;;;;;4590029;19;19979;-33
2022/08/02 06:23:01;;;;;;;;;;;19.00;99.90;;;;;;4590138;19;20369;-33
2022/08/02 06:24:32;;;;;;;;;;;19.10;99.90;;;;;;4591789;19;19918;-33
2022/08/02 06:26:03;;;;;;;;;;;19.00;99.90;;;;;;4591265;19;19919;-33
2022/08/02 06:27:34;;;;;;;;;;;19.00;99.90;;;;;;4589011;19;19948;-31
2022/08/02 06:29:05;;;;;;;;;;;19.00;99.90;;;;;;4592923;19;19967;-32
2022/08/02 06:30:36;;;;;;;;;;;19.00;99.90;;;;;;4591707;19;19923;-33
2022/08/02 06:32:08;;;;;;;;;;;19.00;99.90;;;;;;4592049;19;19925;-34
2022/08/02 06:33:39;;;;;;;;;;;19.00;99.90;;;;;;4589738;19;19933;-34
2022/08/02 06:35:09;;;;;;;;;;;19.00;99.90;;;;;;4590832;19;19955;-33
2022/08/02 06:36:51;;;;;;;;;;;19.00;99.90;;;;;;4590467;19;19931;-33
2022/08/02 06:38:23;;;;;;;;;;;19.10;99.90;;;;;;4591207;19;19923;-32
2022/08/02 06:39:58;;;;;;;;;;;19.10;99.90;;;;;;4590570;19;19942;-33
2022/08/02 06:41:41;;;;;;;;;;;19.10;99.90;;;;;;4590951;19;19929;-32
2022/08/02 06:43:17;;;;;;;;;;;19.10;99.90;;;;;;4588271;19;20006;-33
2022/08/02 06:44:52;;;;;;;;;;;19.10;99.90;;;;;;4590419;19;20367;-33
2022/08/02 06:46:24;;;;;;;;;;;19.10;99.90;;;;;;4591264;19;19919;-34
2022/08/02 06:47:56;;;;;;;;;;;19.20;99.90;;;;;;4589544;19;19915;-34
2022/08/02 06:49:26;;;;;;;;;;;19.20;99.90;;;;;;4587411;19;19911;-33
2022/08/02 06:50:58;;;;;;;;;;;19.20;99.90;;;;;;4590565;19;19925;-33
2022/08/02 06:52:32;;;;;;;;;;;19.30;99.90;;;;;;4591628;19;19918;-34
2022/08/02 06:54:03;;;;;;;;;;;19.30;99.90;;;;;;4590452;19;19934;-33
2022/08/02 06:55:34;;;;;;;;;;;19.30;99.90;;;;;;4590365;19;19914;-32
2022/08/02 06:57:07;;;;;;;;;;;19.30;99.90;;;;;;4586247;19;20432;-32
2022/08/02 06:58:37;;;;;;;;;;;19.30;99.90;;;;;;4591431;19;20016;-33
2022/08/02 07:00:09;;;;;;;;;;;19.20;99.90;;;;;;4589650;19;20308;-33
2022/08/02 07:01:40;;;;;;;;;;;19.30;99.90;;;;;;4590457;19;20321;-32
2022/08/02 07:03:11;;;;;;;;;;;19.30;99.90;;;;;;4590835;19;19945;-33
2022/08/02 07:04:42;;;;;;;;;;;19.30;99.90;;;;;;4589671;19;20330;-31
2022/08/02 07:06:13;;;;;;;;;;;19.30;99.90;;;;;;4587590;19;19927;-37
2022/08/02 07:07:44;;;;;;;;;;;19.30;99.90;;;;;;4588587;19;19978;-33
2022/08/02 07:09:15;;;;;;;;;;;19.30;99.90;;;;;;4587670;19;19919;-32
2022/08/02 07:10:46;;;;;;;;;;;19.30;99.90;;;;;;4588827;19;20038;-34
2022/08/02 07:12:17;;;;;;;;;;;19.30;99.90;;;;;;4591842;19;19911;-33
2022/08/02 07:13:48;;;;;;;;;;;19.30;99.90;;;;;;4591802;19;20328;-32
2022/08/02 07:15:19;;;;;;;;;;;19.30;99.90;;;;;;4590657;19;19911;-34
2022/08/02 07:16:50;;;;;;;;;;;19.40;99.90;;;;;;4591206;19;20353;-35
2022/08/02 07:18:22;;;;;;;;;;;19.30;99.90;;;;;;4589752;19;19931;-34
2022/08/02 07:19:53;;;;;;;;;;;19.30;99.90;;;;;;4590016;19;19923;-32
2022/08/02 07:21:24;;;;;;;;;;;19.30;99.90;;;;;;4590125;19;19926;-31
2022/08/02 07:22:55;;;;;;;;;;;19.30;99.90;;;;;;4588810;19;19918;-32
2022/08/02 07:24:26;;;;;;;;;;;19.30;99.90;;;;;;4589102;19;19938;-33
2022/08/02 07:25:57;;;;;;;;;;;19.30;99.90;;;;;;4591570;19;19922;-33
2022/08/02 07:27:28;;;;;;;;;;;19.30;99.90;;;;;;4591695;19;20332;-32
2022/08/02 07:28:59;;;;;;;;;;;19.30;99.90;;;;;;4591129;19;19926;-33
2022/08/02 07:30:31;;;;;;;;;;;19.30;99.90;;;;;;4589056;19;19919;-33
2022/08/02 07:32:02;;;;;;;;;;;19.30;99.90;;;;;;4589387;19;19915;-32
2022/08/02 07:33:33;;;;;;;;;;;19.30;99.90;;;;;;4589577;19;20449;-32
2022/08/02 07:35:05;;;;;;;;;;;19.30;99.90;;;;;;4588952;19;19966;-31
2022/08/02 07:36:36;;;;;;;;;;;19.30;99.90;;;;;;4590802;19;19915;-33
2022/08/02 07:38:08;;;;;;;;;;;19.30;99.90;;;;;;4590276;19;19963;-32
2022/08/02 07:39:39;;;;;;;;;;;19.30;99.90;;;;;;4591720;19;19989;-34
2022/08/02 07:41:10;;;;;;;;;;;19.40;99.90;;;;;;4589525;19;19918;-32
2022/08/02 07:42:41;;;;;;;;;;;19.40;99.90;;;;;;4588847;19;19942;-31
2022/08/02 07:44:12;;;;;;;;;;;19.40;99.90;;;;;;4590869;19;19971;-33
2022/08/02 07:45:43;;;;;;;;;;;19.40;99.90;;;;;;4590202;19;19935;-32
2022/08/02 07:47:14;;;;;;;;;;;19.40;99.90;;;;;;4589976;19;19922;-32
2022/08/02 07:48:45;;;;;;;;;;;19.40;99.90;;;;;;4590170;19;19919;-32
2022/08/02 07:50:16;;;;;;;;;;;19.40;99.90;;;;;;4589435;19;19923;-32
2022/08/02 07:51:48;;;;;;;;;;;19.40;99.90;;;;;;4589147;19;19926;-32
2022/08/02 07:53:19;;;;;;;;;;;19.50;99.90;;;;;;4589698;19;20340;-31
2022/08/02 07:54:49;;;;;;;;;;;19.50;99.90;;;;;;4583969;19;19984;-32
2022/08/02 07:56:21;;;;;;;;;;;19.50;99.90;;;;;;4590034;19;19942;-32
2022/08/02 07:57:52;;;;;;;;;;;19.50;99.90;;;;;;4591937;19;19923;-32
2022/08/02 07:59:23;;;;;;;;;;;19.60;99.90;;;;;;4586992;19;19939;-32
2022/08/02 08:00:55;;;;;;;;;;;19.70;99.90;;;;;;4592971;19;19919;-32
2022/08/02 08:02:26;;;;;;;;;;;19.80;99.90;;;;;;4596049;19;20440;-32
2022/08/02 08:03:57;;;;;;;;;;;19.80;99.90;;;;;;4595227;19;20380;-32
2022/08/02 08:05:28;;;;;;;;;;;19.80;99.90;;;;;;4596301;19;19915;-32
2022/08/02 08:07:03;;;;;;;;;;;19.80;99.90;;;;;;4595838;19;20280;-32
2022/08/02 08:08:34;;;;;;;;;;;19.80;99.90;;;;;;4595374;19;20356;-32
2022/08/02 08:10:05;;;;;;;;;;;19.80;99.90;;;;;;4591501;19;19938;-32
2022/08/02 08:11:36;;;;;;;;;;;19.80;99.90;;;;;;4593414;19;19978;-32
2022/08/02 08:13:07;;;;;;;;;;;19.80;99.90;;;;;;4592822;19;19923;-32
2022/08/02 08:14:38;;;;;;;;;;;19.80;99.90;;;;;;4594053;19;19918;-32
2022/08/02 08:16:09;;;;;;;;;;;19.80;99.90;;;;;;4593549;19;19914;-32
2022/08/02 08:17:40;;;;;;;;;;;19.80;99.90;;;;;;4595073;19;20263;-32
2022/08/02 08:19:11;;;;;;;;;;;19.80;99.90;;;;;;4594343;19;19930;-32
2022/08/02 08:20:42;;;;;;;;;;;19.80;99.90;;;;;;4594971;19;19922;-32
2022/08/02 08:22:13;;;;;;;;;;;19.80;99.90;;;;;;4594952;19;19979;-32
2022/08/02 08:23:44;;;;;;;;;;;19.80;99.90;;;;;;4595241;19;19950;-32
2022/08/02 08:25:15;;;;;;;;;;;19.80;99.90;;;;;;4594422;19;19914;-32
2022/08/02 08:26:46;;;;;;;;;;;19.80;99.90;;;;;;4594429;19;19981;-32
2022/08/02 08:28:17;;;;;;;;;;;19.90;99.90;;;;;;4594937;19;20006;-32
2022/08/02 08:29:48;;;;;;;;;;;19.90;99.90;;;;;;4594666;19;19930;-32
2022/08/02 08:31:19;;;;;;;;;;;19.90;99.90;;;;;;4594215;19;19930;-32
2022/08/02 08:32:50;;;;;;;;;;;19.90;99.90;;;;;;4594417;19;19930;-32
2022/08/02 08:34:22;;;;;;;;;;;19.90;99.90;;;;;;4594755;19;19913;-33
2022/08/02 08:35:53;;;;;;;;;;;19.90;99.90;;;;;;4594138;19;19926;-32
2022/08/02 08:37:24;;;;;;;;;;;19.90;99.90;;;;;;4594570;19;20266;-32
2022/08/02 08:38:55;;;;;;;;;;;19.80;99.90;;;;;;4594290;19;19921;-32
2022/08/02 08:40:26;;;;;;;;;;;19.90;99.90;;;;;;4594825;19;19914;-32
2022/08/02 08:41:57;;;;;;;;;;;19.90;99.90;;;;;;4592865;19;19914;-32
2022/08/02 08:43:28;;;;;;;;;;;19.90;99.90;;;;;;4593918;19;19914;-32
2022/08/02 08:44:59;;;;;;;;;;;19.90;99.90;;;;;;4593587;19;19976;-32
2022/08/02 08:46:33;;;;;;;;;;;19.90;99.90;;;;;;4593887;19;19915;-32
2022/08/02 08:48:10;;;;;;;;;;;19.90;99.90;;;;;;4593838;19;19942;-32
2022/08/02 08:49:41;;;;;;;;;;;20.00;99.90;;;;;;4593538;19;19911;-32
2022/08/02 08:51:15;;;;;;;;;;;20.00;99.90;;;;;;4592845;19;19917;-32
2022/08/02 08:52:47;;;;;;;;;;;20.00;99.90;;;;;;4593635;19;19915;-32
2022/08/02 08:54:18;;;;;;;;;;;20.00;99.90;;;;;;4593585;19;19911;-32
2022/08/02 08:55:56;;;;;;;;;;;20.00;99.90;;;;;;4593893;19;19919;-32
2022/08/02 08:57:28;;;;;;;;;;;20.00;99.90;;;;;;4593067;19;19911;-33
2022/08/02 08:59:04;;;;;;;;;;;20.00;99.90;;;;;;4593416;19;19929;-32